createdAt,value
2018-08-28T00:00:37.993Z,43.93
2018-08-28T00:01:38.000Z,44.42
2018-08-28T00:02:38.007Z,44.13
2018-08-28T00:03:38.015Z,44.49
2018-08-28T00:04:38.020Z,44.42
2018-08-28T00:05:38.028Z,44.30
2018-08-28T00:06:38.040Z,44.32
2018-08-28T00:07:38.041Z,44.71
2018-08-28T00:08:38.053Z,45.20
2018-08-28T00:09:38.055Z,45.10
2018-08-28T00:10:38.062Z,44.88
2018-08-28T00:11:38.071Z,44.88
2018-08-28T00:12:38.076Z,44.98
2018-08-28T00:13:38.083Z,45.07
2018-08-28T00:14:38.090Z,45.37
2018-08-28T00:15:38.095Z,45.37
2018-08-28T00:16:38.104Z,45.65
2018-08-28T00:17:38.111Z,45.65
2018-08-28T00:18:38.121Z,45.65
2018-08-28T00:19:38.125Z,45.65
2018-08-28T00:20:38.131Z,45.47
2018-08-28T00:21:38.137Z,45.85
2018-08-28T00:22:38.145Z,45.75
2018-08-28T00:23:38.150Z,45.85
2018-08-28T00:24:38.159Z,45.95
2018-08-28T00:25:38.164Z,46.43
2018-08-28T00:26:38.171Z,46.24
2018-08-28T00:27:38.177Z,46.04
2018-08-28T00:28:38.221Z,46.24
2018-08-28T00:29:38.191Z,46.24
2018-08-28T00:30:38.208Z,46.14
2018-08-28T00:31:38.205Z,46.04
2018-08-28T00:32:38.211Z,46.62
2018-08-28T00:33:38.218Z,46.72
2018-08-28T00:34:38.225Z,46.43
2018-08-28T00:35:38.232Z,46.53
2018-08-28T00:36:38.238Z,46.80
2018-08-28T00:37:38.245Z,46.62
2018-08-28T00:38:38.252Z,46.62
2018-08-28T00:39:38.258Z,47.09
2018-08-28T00:40:38.265Z,47.09
2018-08-28T00:41:38.272Z,46.99
2018-08-28T00:42:38.279Z,46.89
2018-08-28T00:43:38.286Z,46.89
2018-08-28T00:44:38.290Z,46.60
2018-08-28T00:45:38.298Z,47.19
2018-08-28T00:46:38.306Z,47.09
2018-08-28T00:47:38.330Z,47.09
2018-08-28T00:48:38.322Z,46.80
2018-08-28T00:49:38.326Z,47.38
2018-08-28T00:50:38.331Z,47.09
2018-08-28T00:51:38.337Z,47.28
2018-08-28T00:52:38.344Z,47.38
2018-08-28T00:53:38.352Z,47.38
2018-08-28T00:54:38.359Z,47.28
2018-08-28T00:55:38.363Z,47.57
2018-08-28T00:56:38.386Z,47.57
2018-08-28T00:57:38.377Z,47.77
2018-08-28T00:58:38.384Z,47.57
2018-08-28T00:59:38.391Z,47.77
2018-08-28T01:00:38.399Z,47.38
2018-08-28T01:01:38.403Z,47.28
2018-08-28T01:02:38.414Z,47.38
2018-08-28T01:03:38.416Z,47.47
2018-08-28T01:04:38.424Z,47.09
2018-08-28T01:05:38.433Z,47.38
2018-08-28T01:06:38.436Z,46.80
2018-08-28T01:07:38.443Z,46.89
2018-08-28T01:08:38.449Z,47.19
2018-08-28T01:09:38.455Z,46.60
2018-08-28T01:10:38.463Z,46.80
2018-08-28T01:11:38.468Z,47.09
2018-08-28T01:12:38.476Z,46.60
2018-08-28T01:13:38.484Z,46.60
2018-08-28T01:14:38.547Z,46.70
2018-08-28T01:15:38.495Z,46.51
2018-08-28T01:16:38.500Z,46.70
2018-08-28T01:17:38.508Z,46.60
2018-08-28T01:18:38.515Z,46.12
2018-08-28T01:19:38.521Z,46.33
2018-08-28T01:20:38.528Z,46.22
2018-08-28T01:21:38.536Z,46.31
2018-08-28T01:22:38.545Z,46.04
2018-08-28T01:23:38.550Z,45.83
2018-08-28T01:24:38.554Z,45.73
2018-08-28T01:25:38.561Z,45.85
2018-08-28T01:26:38.568Z,45.37
2018-08-28T01:27:38.576Z,45.47
2018-08-28T01:28:38.581Z,45.65
2018-08-28T01:29:38.588Z,45.56
2018-08-28T01:30:38.595Z,45.95
2018-08-28T01:31:38.600Z,45.65
2018-08-28T01:32:38.606Z,45.85
2018-08-28T01:33:38.614Z,45.95
2018-08-28T01:34:38.621Z,45.37
2018-08-28T01:35:38.628Z,45.56
2018-08-28T01:36:38.634Z,45.27
2018-08-28T01:37:38.647Z,45.37
2018-08-28T01:38:38.648Z,45.27
2018-08-28T01:39:38.658Z,45.27
2018-08-28T01:40:38.661Z,45.37
2018-08-28T01:41:38.667Z,45.17
2018-08-28T01:42:38.675Z,45.37
2018-08-28T01:43:38.680Z,45.47
2018-08-28T01:44:38.687Z,45.27
2018-08-28T01:45:38.695Z,44.98
2018-08-28T01:46:38.701Z,45.27
2018-08-28T01:47:38.710Z,45.65
2018-08-28T01:48:38.715Z,45.85
2018-08-28T01:49:38.721Z,45.85
2018-08-28T01:50:38.735Z,45.56
2018-08-28T01:51:38.735Z,45.65
2018-08-28T01:52:38.741Z,45.75
2018-08-28T01:53:38.748Z,45.85
2018-08-28T01:54:38.753Z,46.24
2018-08-28T01:55:38.761Z,46.24
2018-08-28T01:56:38.768Z,46.24
2018-08-28T01:57:38.775Z,46.62
2018-08-28T01:58:38.782Z,46.72
2018-08-28T01:59:38.788Z,46.24
2018-08-28T02:00:38.795Z,46.62
2018-08-28T02:01:38.802Z,46.82
2018-08-28T02:02:38.808Z,46.82
2018-08-28T02:03:38.815Z,47.02
2018-08-28T02:04:38.821Z,46.82
2018-08-28T02:05:38.830Z,47.02
2018-08-28T02:06:38.860Z,47.11
2018-08-28T02:07:38.841Z,46.92
2018-08-28T02:08:38.848Z,46.80
2018-08-28T02:09:38.855Z,47.11
2018-08-28T02:10:38.862Z,47.28
2018-08-28T02:11:38.868Z,47.38
2018-08-28T02:12:38.875Z,47.47
2018-08-28T02:13:38.884Z,47.47
2018-08-28T02:14:38.888Z,47.28
2018-08-28T02:15:38.896Z,47.38
2018-08-28T02:16:38.901Z,47.19
2018-08-28T02:17:38.908Z,47.19
2018-08-28T02:18:38.917Z,47.47
2018-08-28T02:19:38.921Z,47.67
2018-08-28T02:20:38.929Z,47.57
2018-08-28T02:21:38.938Z,47.57
2018-08-28T02:22:38.940Z,47.67
2018-08-28T02:23:38.946Z,47.67
2018-08-28T02:24:38.954Z,47.86
2018-08-28T02:25:38.961Z,47.67
2018-08-28T02:26:38.967Z,47.67
2018-08-28T02:27:38.970Z,47.28
2018-08-28T02:28:38.979Z,47.47
2018-08-28T02:29:38.986Z,47.86
2018-08-28T02:30:38.993Z,47.67
2018-08-28T02:31:38.996Z,47.77
2018-08-28T02:32:39.005Z,47.77
2018-08-28T02:33:39.092Z,47.84
2018-08-28T02:34:39.018Z,47.96
2018-08-28T02:35:39.027Z,48.06
2018-08-28T02:36:39.030Z,47.77
2018-08-28T02:37:39.038Z,48.13
2018-08-28T02:38:39.044Z,48.06
2018-08-28T02:39:39.049Z,48.03
2018-08-28T02:40:39.056Z,48.35
2018-08-28T02:41:39.063Z,48.13
2018-08-28T02:42:39.069Z,48.03
2018-08-28T02:43:39.078Z,47.96
2018-08-28T02:44:39.092Z,47.94
2018-08-28T02:45:39.089Z,48.22
2018-08-28T02:46:39.095Z,48.22
2018-08-28T02:47:39.100Z,48.42
2018-08-28T02:48:39.107Z,48.61
2018-08-28T02:49:39.113Z,48.03
2018-08-28T02:50:39.120Z,48.03
2018-08-28T02:51:39.126Z,47.94
2018-08-28T02:52:39.132Z,47.94
2018-08-28T02:53:39.139Z,48.13
2018-08-28T02:54:39.145Z,48.13
2018-08-28T02:55:39.150Z,48.03
2018-08-28T02:56:39.161Z,48.22
2018-08-28T02:57:39.164Z,47.84
2018-08-28T02:58:39.171Z,47.74
2018-08-28T02:59:39.183Z,47.84
2018-08-28T03:00:39.184Z,47.74
2018-08-28T03:01:39.189Z,47.28
2018-08-28T03:02:39.201Z,47.94
2018-08-28T03:03:39.206Z,47.67
2018-08-28T03:04:39.209Z,47.57
2018-08-28T03:05:39.215Z,47.38
2018-08-28T03:06:39.222Z,47.67
2018-08-28T03:07:39.229Z,47.28
2018-08-28T03:08:39.234Z,47.47
2018-08-28T03:09:39.241Z,47.19
2018-08-28T03:10:39.247Z,47.38
2018-08-28T03:11:39.398Z,47.38
2018-08-28T03:12:39.261Z,47.28
2018-08-28T03:13:39.272Z,47.38
2018-08-28T03:14:39.272Z,47.09
2018-08-28T03:15:39.395Z,47.28
2018-08-28T03:16:39.286Z,46.89
2018-08-28T03:17:39.293Z,46.80
2018-08-28T03:18:39.299Z,47.19
2018-08-28T03:19:39.304Z,46.99
2018-08-28T03:20:39.311Z,47.09
2018-08-28T03:21:39.318Z,46.89
2018-08-28T03:22:39.324Z,46.99
2018-08-28T03:23:39.330Z,46.80
2018-08-28T03:24:39.338Z,46.70
2018-08-28T03:25:39.344Z,46.99
2018-08-28T03:26:39.348Z,46.99
2018-08-28T03:27:39.357Z,46.80
2018-08-28T03:28:39.363Z,46.51
2018-08-28T03:29:39.370Z,46.60
2018-08-28T03:30:39.377Z,46.80
2018-08-28T03:31:39.380Z,46.80
2018-08-28T03:32:39.390Z,46.70
2018-08-28T03:33:39.396Z,46.99
2018-08-28T03:34:39.404Z,46.41
2018-08-28T03:35:39.408Z,46.41
2018-08-28T03:36:39.414Z,46.70
2018-08-28T03:37:39.422Z,46.60
2018-08-28T03:38:39.429Z,46.22
2018-08-28T03:39:39.439Z,46.12
2018-08-28T03:40:39.444Z,46.12
2018-08-28T03:41:39.449Z,46.41
2018-08-28T03:42:39.456Z,46.12
2018-08-28T03:43:39.462Z,46.02
2018-08-28T03:44:39.539Z,46.24
2018-08-28T03:45:39.475Z,46.24
2018-08-28T03:46:39.484Z,46.24
2018-08-28T03:47:39.487Z,46.14
2018-08-28T03:48:39.495Z,46.31
2018-08-28T03:49:39.501Z,46.14
2018-08-28T03:50:39.513Z,46.04
2018-08-28T03:51:39.512Z,45.85
2018-08-28T03:52:39.522Z,45.85
2018-08-28T03:53:39.543Z,45.85
2018-08-28T03:54:39.535Z,45.75
2018-08-28T03:55:39.540Z,45.95
2018-08-28T03:56:39.546Z,45.85
2018-08-28T03:57:39.555Z,45.95
2018-08-28T03:58:39.561Z,45.75
2018-08-28T03:59:39.575Z,45.65
2018-08-28T04:00:39.574Z,45.37
2018-08-28T04:01:39.581Z,45.47
2018-08-28T04:02:39.588Z,45.47
2018-08-28T04:03:39.608Z,45.47
2018-08-28T04:04:39.612Z,45.37
2018-08-28T04:05:39.607Z,45.56
2018-08-28T04:06:39.614Z,45.65
2018-08-28T04:07:39.621Z,46.04
2018-08-28T04:08:39.627Z,45.95
2018-08-28T04:09:39.637Z,45.95
2018-08-28T04:10:39.641Z,45.85
2018-08-28T04:11:39.649Z,45.85
2018-08-28T04:12:39.656Z,45.85
2018-08-28T04:13:39.661Z,45.85
2018-08-28T04:14:39.668Z,45.85
2018-08-28T04:15:39.672Z,45.75
2018-08-28T04:16:39.681Z,45.75
2018-08-28T04:17:39.689Z,45.65
2018-08-28T04:18:39.695Z,45.65
2018-08-28T04:19:39.703Z,45.75
2018-08-28T04:20:39.708Z,45.56
2018-08-28T04:21:39.715Z,45.56
2018-08-28T04:22:39.818Z,46.04
2018-08-28T04:23:39.734Z,46.43
2018-08-28T04:24:39.742Z,46.14
2018-08-28T04:25:39.743Z,46.33
2018-08-28T04:26:39.748Z,46.43
2018-08-28T04:27:39.755Z,46.33
2018-08-28T04:28:39.762Z,46.14
2018-08-28T04:29:39.768Z,46.04
2018-08-28T04:30:39.951Z,46.72
2018-08-28T04:31:39.781Z,46.62
2018-08-28T04:32:39.788Z,46.72
2018-08-28T04:33:39.795Z,46.43
2018-08-28T04:34:39.804Z,46.62
2018-08-28T04:35:39.811Z,46.33
2018-08-28T04:36:39.814Z,46.70
2018-08-28T04:37:39.822Z,46.70
2018-08-28T04:38:39.829Z,46.60
2018-08-28T04:39:39.835Z,46.60
2018-08-28T04:40:39.841Z,46.70
2018-08-28T04:41:39.898Z,46.80
2018-08-28T04:42:39.856Z,46.51
2018-08-28T04:43:39.861Z,46.60
2018-08-28T04:44:39.868Z,47.09
2018-08-28T04:45:39.878Z,47.67
2018-08-28T04:46:39.881Z,47.67
2018-08-28T04:47:39.887Z,47.77
2018-08-28T04:48:39.931Z,47.96
2018-08-28T04:49:39.906Z,47.86
2018-08-28T04:50:39.910Z,47.67
2018-08-28T04:51:39.913Z,47.96
2018-08-28T04:52:39.922Z,48.44
2018-08-28T04:53:39.927Z,48.35
2018-08-28T04:54:39.947Z,47.86
2018-08-28T04:55:39.940Z,48.15
2018-08-28T04:56:39.946Z,48.15
2018-08-28T04:57:39.955Z,48.06
2018-08-28T04:58:39.960Z,48.15
2018-08-28T04:59:39.966Z,48.35
2018-08-28T05:00:39.981Z,48.35
2018-08-28T05:01:39.979Z,48.15
2018-08-28T05:02:39.986Z,47.96
2018-08-28T05:03:39.993Z,47.86
2018-08-28T05:04:40.002Z,48.06
2018-08-28T05:05:40.006Z,47.96
2018-08-28T05:06:40.012Z,47.96
2018-08-28T05:07:40.023Z,48.44
2018-08-28T05:08:40.024Z,48.25
2018-08-28T05:09:40.031Z,48.32
2018-08-28T05:10:40.037Z,48.22
2018-08-28T05:11:40.054Z,48.25
2018-08-28T05:12:40.053Z,48.54
2018-08-28T05:13:40.056Z,48.44
2018-08-28T05:14:40.064Z,48.54
2018-08-28T05:15:40.069Z,48.44
2018-08-28T05:16:40.108Z,48.42
2018-08-28T05:17:40.079Z,48.52
2018-08-28T05:18:40.089Z,48.54
2018-08-28T05:19:40.095Z,48.35
2018-08-28T05:20:40.101Z,48.44
2018-08-28T05:21:40.107Z,48.15
2018-08-28T05:22:40.116Z,48.06
2018-08-28T05:23:40.123Z,48.06
2018-08-28T05:24:40.128Z,48.25
2018-08-28T05:25:40.133Z,48.15
2018-08-28T05:26:40.141Z,47.96
2018-08-28T05:27:40.146Z,48.03
2018-08-28T05:28:40.154Z,48.03
2018-08-28T05:29:40.172Z,47.77
2018-08-28T05:30:40.168Z,47.86
2018-08-28T05:31:40.171Z,47.96
2018-08-28T05:32:40.179Z,47.77
2018-08-28T05:33:40.185Z,47.96
2018-08-28T05:34:40.192Z,48.06
2018-08-28T05:35:40.199Z,48.06
2018-08-28T05:36:40.203Z,48.06
2018-08-28T05:37:40.212Z,47.86
2018-08-28T05:38:40.218Z,47.96
2018-08-28T05:39:40.224Z,48.15
2018-08-28T05:40:40.229Z,48.06
2018-08-28T05:41:40.239Z,47.96
2018-08-28T05:42:40.243Z,47.67
2018-08-28T05:43:40.252Z,47.86
2018-08-28T05:44:40.255Z,47.67
2018-08-28T05:45:40.263Z,47.47
2018-08-28T05:46:40.268Z,47.28
2018-08-28T05:47:40.284Z,47.47
2018-08-28T05:48:40.281Z,47.28
2018-08-28T05:49:40.410Z,47.28
2018-08-28T05:50:40.295Z,47.38
2018-08-28T05:51:40.302Z,47.38
2018-08-28T05:52:40.315Z,47.28
2018-08-28T05:53:40.314Z,46.89
2018-08-28T05:54:40.322Z,46.70
2018-08-28T05:55:40.355Z,46.80
2018-08-28T05:56:40.335Z,46.80
2018-08-28T05:57:40.341Z,46.80
2018-08-28T05:58:40.347Z,46.89
2018-08-28T05:59:40.354Z,46.70
2018-08-28T06:00:40.360Z,46.89
2018-08-28T06:01:40.363Z,47.38
2018-08-28T06:02:40.373Z,46.97
2018-08-28T06:03:40.384Z,47.28
2018-08-28T06:04:40.385Z,47.09
2018-08-28T06:05:40.392Z,47.28
2018-08-28T06:06:40.398Z,46.99
2018-08-28T06:07:40.408Z,47.28
2018-08-28T06:08:40.470Z,46.97
2018-08-28T06:09:40.421Z,47.19
2018-08-28T06:10:40.425Z,47.38
2018-08-28T06:11:40.426Z,47.28
2018-08-28T06:12:40.437Z,47.57
2018-08-28T06:13:40.443Z,47.57
2018-08-28T06:14:40.462Z,47.57
2018-08-28T06:15:40.459Z,47.47
2018-08-28T06:16:40.461Z,47.28
2018-08-28T06:17:40.469Z,47.47
2018-08-28T06:18:40.476Z,47.38
2018-08-28T06:19:40.481Z,47.09
2018-08-28T06:20:40.489Z,47.47
2018-08-28T06:21:40.494Z,47.09
2018-08-28T06:22:40.502Z,47.28
2018-08-28T06:23:40.507Z,47.28
2018-08-28T06:24:40.516Z,47.28
2018-08-28T06:25:40.528Z,47.67
2018-08-28T06:26:40.528Z,47.77
2018-08-28T06:27:40.538Z,47.16
2018-08-28T06:28:40.541Z,47.36
2018-08-28T06:29:40.547Z,47.74
2018-08-28T06:30:40.557Z,47.64
2018-08-28T06:31:40.559Z,47.16
2018-08-28T06:32:40.566Z,47.64
2018-08-28T06:33:40.579Z,47.74
2018-08-28T06:34:40.578Z,47.64
2018-08-28T06:35:40.584Z,47.64
2018-08-28T06:36:40.595Z,47.84
2018-08-28T06:37:40.598Z,47.45
2018-08-28T06:38:40.616Z,47.16
2018-08-28T06:39:40.616Z,47.45
2018-08-28T06:40:40.636Z,47.19
2018-08-28T06:41:40.627Z,47.45
2018-08-28T06:42:40.635Z,47.19
2018-08-28T06:43:40.650Z,47.19
2018-08-28T06:44:40.645Z,47.19
2018-08-28T06:45:40.658Z,47.09
2018-08-28T06:46:40.657Z,47.47
2018-08-28T06:47:40.661Z,47.28
2018-08-28T06:48:40.675Z,47.38
2018-08-28T06:49:40.781Z,47.45
2018-08-28T06:50:40.681Z,47.47
2018-08-28T06:51:40.710Z,47.57
2018-08-28T06:52:40.697Z,47.47
2018-08-28T06:53:40.700Z,47.38
2018-08-28T06:54:40.721Z,47.19
2018-08-28T06:55:40.715Z,47.19
2018-08-28T06:56:40.727Z,46.89
2018-08-28T06:57:40.741Z,47.19
2018-08-28T06:58:40.733Z,47.38
2018-08-28T06:59:40.738Z,47.28
2018-08-28T07:00:40.748Z,47.09
2018-08-28T07:01:40.766Z,46.99
2018-08-28T07:02:40.765Z,46.99
2018-08-28T07:03:40.770Z,46.80
2018-08-28T07:04:40.774Z,46.70
2018-08-28T07:05:40.778Z,46.80
2018-08-28T07:06:40.786Z,47.09
2018-08-28T07:07:40.791Z,47.09
2018-08-28T07:08:40.797Z,46.60
2018-08-28T07:09:40.804Z,46.80
2018-08-28T07:10:40.812Z,46.22
2018-08-28T07:11:40.817Z,46.60
2018-08-28T07:12:40.824Z,46.12
2018-08-28T07:13:40.830Z,46.12
2018-08-28T07:14:40.838Z,46.41
2018-08-28T07:15:40.847Z,46.31
2018-08-28T07:16:40.856Z,46.31
2018-08-28T07:17:40.856Z,46.12
2018-08-28T07:18:40.869Z,46.31
2018-08-28T07:19:40.871Z,46.31
2018-08-28T07:20:40.876Z,46.31
2018-08-28T07:21:40.882Z,46.12
2018-08-28T07:22:40.890Z,46.70
2018-08-28T07:23:40.895Z,46.51
2018-08-28T07:24:40.901Z,46.51
2018-08-28T07:25:40.985Z,46.70
2018-08-28T07:26:40.918Z,46.70
2018-08-28T07:27:40.923Z,46.70
2018-08-28T07:28:40.928Z,46.70
2018-08-28T07:29:40.938Z,46.41
2018-08-28T07:30:40.942Z,46.70
2018-08-28T07:31:41.009Z,46.89
2018-08-28T07:32:40.955Z,46.70
2018-08-28T07:33:40.962Z,46.89
2018-08-28T07:34:40.969Z,46.41
2018-08-28T07:35:40.973Z,46.89
2018-08-28T07:36:40.980Z,46.80
2018-08-28T07:37:40.986Z,46.51
2018-08-28T07:38:40.994Z,46.60
2018-08-28T07:39:41.003Z,46.60
2018-08-28T07:40:41.007Z,46.51
2018-08-28T07:41:41.013Z,46.51
2018-08-28T07:42:41.059Z,46.60
2018-08-28T07:43:41.026Z,46.60
2018-08-28T07:44:41.035Z,46.60
2018-08-28T07:45:41.042Z,46.60
2018-08-28T07:46:41.047Z,46.51
2018-08-28T07:47:41.051Z,46.51
2018-08-28T07:48:41.060Z,46.80
2018-08-28T07:49:41.066Z,46.60
2018-08-28T07:50:41.075Z,46.60
2018-08-28T07:51:41.084Z,46.60
2018-08-28T07:52:41.085Z,46.89
2018-08-28T07:53:41.100Z,46.60
2018-08-28T07:54:41.100Z,46.99
2018-08-28T07:55:41.104Z,47.19
2018-08-28T07:56:41.109Z,46.99
2018-08-28T07:57:41.122Z,46.89
2018-08-28T07:58:41.125Z,46.70
2018-08-28T07:59:41.130Z,46.80
2018-08-28T08:00:41.138Z,47.19
2018-08-28T08:01:41.144Z,46.99
2018-08-28T08:02:41.154Z,46.89
2018-08-28T08:03:41.157Z,46.89
2018-08-28T08:04:41.163Z,46.99
2018-08-28T08:05:41.170Z,46.70
2018-08-28T08:06:41.177Z,46.70
2018-08-28T08:07:41.223Z,47.09
2018-08-28T08:08:41.193Z,47.19
2018-08-28T08:09:41.197Z,47.19
2018-08-28T08:10:41.203Z,47.38
2018-08-28T08:11:41.208Z,47.38
2018-08-28T08:12:41.225Z,47.38
2018-08-28T08:13:41.223Z,47.19
2018-08-28T08:14:41.231Z,47.47
2018-08-28T08:15:41.360Z,47.47
2018-08-28T08:16:41.270Z,47.28
2018-08-28T08:17:41.249Z,47.47
2018-08-28T08:18:41.256Z,47.50
2018-08-28T08:19:41.263Z,47.47
2018-08-28T08:20:41.274Z,47.38
2018-08-28T08:21:41.275Z,47.47
2018-08-28T08:22:41.282Z,47.30
2018-08-28T08:23:41.288Z,47.57
2018-08-28T08:24:41.295Z,47.47
2018-08-28T08:25:41.302Z,47.47
2018-08-28T08:26:41.309Z,47.60
2018-08-28T08:27:41.354Z,47.50
2018-08-28T08:28:41.322Z,47.40
2018-08-28T08:29:41.328Z,47.50
2018-08-28T08:30:41.338Z,47.50
2018-08-28T08:31:41.341Z,47.60
2018-08-28T08:32:41.348Z,47.50
2018-08-28T08:33:41.356Z,47.50
2018-08-28T08:34:41.396Z,47.50
2018-08-28T08:35:41.368Z,47.50
2018-08-28T08:36:41.373Z,47.02
2018-08-28T08:37:41.383Z,47.02
2018-08-28T08:38:41.391Z,47.60
2018-08-28T08:39:41.398Z,47.20
2018-08-28T08:40:41.402Z,47.20
2018-08-28T08:41:41.409Z,47.69
2018-08-28T08:42:41.416Z,47.79
2018-08-28T08:43:41.426Z,47.69
2018-08-28T08:44:41.428Z,47.50
2018-08-28T08:45:41.436Z,47.69
2018-08-28T08:46:41.448Z,47.50
2018-08-28T08:47:41.450Z,47.50
2018-08-28T08:48:41.456Z,47.60
2018-08-28T08:49:41.464Z,47.50
2018-08-28T08:50:41.470Z,47.50
2018-08-28T08:51:41.476Z,47.98
2018-08-28T08:52:41.484Z,47.60
2018-08-28T08:53:41.492Z,47.60
2018-08-28T08:54:41.538Z,47.50
2018-08-28T08:55:41.503Z,47.69
2018-08-28T08:56:41.511Z,47.60
2018-08-28T08:57:41.519Z,47.98
2018-08-28T08:58:41.526Z,47.79
2018-08-28T08:59:41.531Z,48.08
2018-08-28T09:00:41.538Z,47.89
2018-08-28T09:01:41.554Z,47.79
2018-08-28T09:02:41.552Z,47.69
2018-08-28T09:03:41.560Z,47.89
2018-08-28T09:04:41.569Z,47.79
2018-08-28T09:05:41.573Z,47.60
2018-08-28T09:06:41.580Z,47.89
2018-08-28T09:07:41.587Z,47.60
2018-08-28T09:08:41.592Z,47.79
2018-08-28T09:09:41.604Z,47.79
2018-08-28T09:10:41.609Z,47.91
2018-08-28T09:11:41.617Z,47.79
2018-08-28T09:12:41.625Z,47.91
2018-08-28T09:13:41.628Z,47.91
2018-08-28T09:14:41.635Z,47.89
2018-08-28T09:15:41.641Z,47.91
2018-08-28T09:16:41.660Z,48.00
2018-08-28T09:17:41.661Z,47.79
2018-08-28T09:18:41.679Z,47.89
2018-08-28T09:19:41.671Z,47.89
2018-08-28T09:20:41.679Z,47.91
2018-08-28T09:21:41.682Z,47.91
2018-08-28T09:22:41.699Z,47.81
2018-08-28T09:23:41.700Z,48.10
2018-08-28T09:24:41.717Z,47.89
2018-08-28T09:25:41.716Z,47.98
2018-08-28T09:26:41.718Z,47.91
2018-08-28T09:27:41.725Z,48.00
2018-08-28T09:28:41.733Z,47.81
2018-08-28T09:29:41.739Z,47.91
2018-08-28T09:30:41.746Z,47.72
2018-08-28T09:31:41.792Z,48.30
2018-08-28T09:32:41.759Z,47.72
2018-08-28T09:33:41.769Z,48.00
2018-08-28T09:34:41.777Z,47.81
2018-08-28T09:35:41.781Z,48.10
2018-08-28T09:36:41.821Z,47.81
2018-08-28T09:37:41.795Z,47.91
2018-08-28T09:38:41.900Z,47.52
2018-08-28T09:39:41.808Z,47.23
2018-08-28T09:40:41.815Z,47.91
2018-08-28T09:41:41.822Z,47.72
2018-08-28T09:42:41.827Z,47.52
2018-08-28T09:43:41.885Z,47.72
2018-08-28T09:44:41.846Z,47.81
2018-08-28T09:45:41.851Z,47.42
2018-08-28T09:46:41.866Z,48.00
2018-08-28T09:47:41.889Z,47.62
2018-08-28T09:48:41.873Z,47.62
2018-08-28T09:49:41.876Z,48.00
2018-08-28T09:50:41.993Z,47.62
2018-08-28T09:51:41.893Z,47.81
2018-08-28T09:52:41.899Z,47.52
2018-08-28T09:53:41.906Z,47.33
2018-08-28T09:54:41.916Z,47.23
2018-08-28T09:55:41.921Z,47.42
2018-08-28T09:56:41.932Z,47.23
2018-08-28T09:57:41.938Z,47.23
2018-08-28T09:58:41.942Z,47.13
2018-08-28T09:59:41.950Z,47.03
2018-08-28T10:00:41.957Z,47.52
2018-08-28T10:01:41.965Z,47.33
2018-08-28T10:02:41.975Z,47.42
2018-08-28T10:03:41.979Z,47.33
2018-08-28T10:04:42.045Z,47.52
2018-08-28T10:05:41.995Z,47.52
2018-08-28T10:06:42.000Z,47.52
2018-08-28T10:07:42.058Z,47.62
2018-08-28T10:08:42.014Z,47.33
2018-08-28T10:09:42.022Z,47.55
2018-08-28T10:10:42.029Z,47.42
2018-08-28T10:11:42.037Z,47.45
2018-08-28T10:12:42.042Z,47.06
2018-08-28T10:13:42.050Z,47.23
2018-08-28T10:14:42.060Z,46.94
2018-08-28T10:15:42.064Z,46.94
2018-08-28T10:16:42.069Z,46.86
2018-08-28T10:17:42.077Z,47.03
2018-08-28T10:18:42.085Z,47.13
2018-08-28T10:19:42.093Z,47.16
2018-08-28T10:20:42.099Z,47.16
2018-08-28T10:21:42.107Z,47.16
2018-08-28T10:22:42.117Z,47.06
2018-08-28T10:23:42.125Z,46.86
2018-08-28T10:24:42.129Z,47.06
2018-08-28T10:25:42.135Z,47.13
2018-08-28T10:26:42.141Z,47.16
2018-08-28T10:27:42.149Z,46.96
2018-08-28T10:28:42.159Z,46.96
2018-08-28T10:29:42.182Z,47.06
2018-08-28T10:30:42.172Z,46.86
2018-08-28T10:31:42.179Z,46.58
2018-08-28T10:32:42.185Z,46.96
2018-08-28T10:33:42.192Z,46.48
2018-08-28T10:34:42.201Z,46.67
2018-08-28T10:35:42.210Z,46.67
2018-08-28T10:36:42.213Z,46.19
2018-08-28T10:37:42.223Z,46.19
2018-08-28T10:38:42.228Z,46.48
2018-08-28T10:39:42.236Z,46.19
2018-08-28T10:40:42.242Z,46.28
2018-08-28T10:41:42.250Z,46.28
2018-08-28T10:42:42.257Z,46.19
2018-08-28T10:43:42.264Z,46.48
2018-08-28T10:44:42.272Z,46.28
2018-08-28T10:45:42.278Z,46.28
2018-08-28T10:46:42.568Z,46.38
2018-08-28T10:47:42.292Z,46.38
2018-08-28T10:48:42.299Z,46.48
2018-08-28T10:49:42.306Z,46.19
2018-08-28T10:50:42.314Z,46.28
2018-08-28T10:51:42.321Z,46.48
2018-08-28T10:52:42.336Z,46.48
2018-08-28T10:53:42.335Z,46.36
2018-08-28T10:54:42.342Z,46.48
2018-08-28T10:55:42.349Z,46.19
2018-08-28T10:56:42.359Z,46.28
2018-08-28T10:57:42.365Z,46.26
2018-08-28T10:58:42.382Z,46.38
2018-08-28T10:59:42.377Z,46.38
2018-08-28T11:00:42.385Z,46.28
2018-08-28T11:01:42.392Z,46.38
2018-08-28T11:02:42.400Z,46.48
2018-08-28T11:03:42.405Z,46.36
2018-08-28T11:04:42.485Z,46.16
2018-08-28T11:05:42.420Z,46.28
2018-08-28T11:06:42.429Z,46.16
2018-08-28T11:07:42.442Z,46.38
2018-08-28T11:08:42.489Z,46.55
2018-08-28T11:09:42.448Z,46.67
2018-08-28T11:10:42.462Z,46.65
2018-08-28T11:11:42.464Z,46.67
2018-08-28T11:12:42.469Z,46.65
2018-08-28T11:13:42.477Z,46.77
2018-08-28T11:14:42.482Z,46.58
2018-08-28T11:15:42.489Z,46.77
2018-08-28T11:16:42.498Z,46.77
2018-08-28T11:17:42.505Z,46.67
2018-08-28T11:18:42.511Z,46.48
2018-08-28T11:19:42.518Z,46.58
2018-08-28T11:20:42.535Z,46.96
2018-08-28T11:21:42.531Z,46.67
2018-08-28T11:22:42.541Z,46.48
2018-08-28T11:23:42.546Z,46.96
2018-08-28T11:24:42.562Z,46.67
2018-08-28T11:25:42.563Z,46.58
2018-08-28T11:26:42.576Z,46.67
2018-08-28T11:27:42.581Z,46.86
2018-08-28T11:28:42.583Z,46.19
2018-08-28T11:29:42.591Z,46.19
2018-08-28T11:30:42.596Z,46.11
2018-08-28T11:31:42.603Z,46.48
2018-08-28T11:32:42.614Z,46.09
2018-08-28T11:33:42.619Z,45.82
2018-08-28T11:34:42.629Z,45.80
2018-08-28T11:35:42.672Z,45.82
2018-08-28T11:36:42.649Z,45.80
2018-08-28T11:37:42.648Z,45.61
2018-08-28T11:38:42.657Z,45.70
2018-08-28T11:39:42.661Z,45.99
2018-08-28T11:40:42.688Z,45.51
2018-08-28T11:41:42.678Z,45.70
2018-08-28T11:42:42.687Z,45.89
2018-08-28T11:43:42.693Z,45.99
2018-08-28T11:44:42.696Z,45.61
2018-08-28T11:45:42.706Z,45.70
2018-08-28T11:46:42.714Z,45.89
2018-08-28T11:47:42.719Z,45.99
2018-08-28T11:48:42.726Z,45.70
2018-08-28T11:49:42.734Z,45.51
2018-08-28T11:50:42.743Z,45.61
2018-08-28T11:51:42.769Z,45.61
2018-08-28T11:52:42.787Z,45.61
2018-08-28T11:53:42.763Z,45.89
2018-08-28T11:54:42.769Z,45.80
2018-08-28T11:55:42.777Z,45.89
2018-08-28T11:56:42.789Z,46.38
2018-08-28T11:57:42.792Z,46.38
2018-08-28T11:58:42.799Z,46.48
2018-08-28T11:59:42.816Z,46.48
2018-08-28T12:00:42.813Z,46.48
2018-08-28T12:01:42.824Z,46.19
2018-08-28T12:02:42.828Z,46.38
2018-08-28T12:03:42.840Z,46.28
2018-08-28T12:04:42.843Z,46.28
2018-08-28T12:05:42.851Z,46.38
2018-08-28T12:06:42.916Z,46.28
2018-08-28T12:07:42.928Z,46.28
2018-08-28T12:08:42.870Z,46.19
2018-08-28T12:09:42.877Z,46.19
2018-08-28T12:10:42.885Z,46.48
2018-08-28T12:11:42.892Z,46.21
2018-08-28T12:12:42.899Z,46.11
2018-08-28T12:13:42.907Z,45.92
2018-08-28T12:14:42.915Z,45.72
2018-08-28T12:15:42.921Z,45.82
2018-08-28T12:16:42.928Z,45.92
2018-08-28T12:17:42.937Z,46.01
2018-08-28T12:18:42.943Z,46.11
2018-08-28T12:19:42.953Z,45.92
2018-08-28T12:20:42.965Z,45.62
2018-08-28T12:21:42.966Z,45.62
2018-08-28T12:22:42.973Z,45.82
2018-08-28T12:23:42.989Z,45.72
2018-08-28T12:24:42.988Z,46.01
2018-08-28T12:25:42.994Z,46.01
2018-08-28T12:26:43.168Z,45.92
2018-08-28T12:27:43.009Z,46.11
2018-08-28T12:28:43.022Z,45.82
2018-08-28T12:29:43.200Z,45.84
2018-08-28T12:30:43.031Z,45.72
2018-08-28T12:31:43.038Z,46.01
2018-08-28T12:32:43.050Z,45.55
2018-08-28T12:33:43.054Z,45.43
2018-08-28T12:34:43.067Z,45.53
2018-08-28T12:35:43.080Z,45.65
2018-08-28T12:36:43.162Z,45.65
2018-08-28T12:37:43.085Z,45.45
2018-08-28T12:38:43.090Z,45.45
2018-08-28T12:39:43.098Z,45.36
2018-08-28T12:40:43.105Z,45.26
2018-08-28T12:41:43.113Z,45.55
2018-08-28T12:42:43.121Z,45.45
2018-08-28T12:43:43.128Z,45.36
2018-08-28T12:44:43.189Z,45.26
2018-08-28T12:45:43.159Z,45.36
2018-08-28T12:46:43.151Z,45.36
2018-08-28T12:47:43.160Z,45.36
2018-08-28T12:48:43.164Z,45.65
2018-08-28T12:49:43.173Z,45.26
2018-08-28T12:50:43.183Z,45.07
2018-08-28T12:51:43.191Z,44.87
2018-08-28T12:52:43.197Z,44.89